sensor_id;sensor_type;location;lat;lon;timestamp;P1;durP1;ratioP1;P2;durP2;ratioP2
51957;SDS011;41120;51.820;20.804;2023-05-18T00:04:45;10.73;;;2.67;;
51957;SDS011;41120;51.820;20.804;2023-05-18T00:07:19;9.53;;;3.10;;
51957;SDS011;41120;51.820;20.804;2023-05-18T00:09:46;14.77;;;2.37;;
51957;SDS011;41120;51.820;20.804;2023-05-18T00:12:15;10.03;;;2.70;;
51957;SDS011;41120;51.820;20.804;2023-05-18T00:17:30;16.00;;;3.00;;
51957;SDS011;41120;51.820;20.804;2023-05-18T00:20:00;8.87;;;2.47;;
51957;SDS011;41120;51.820;20.804;2023-05-18T00:22:29;8.67;;;3.03;;
51957;SDS011;41120;51.820;20.804;2023-05-18T00:24:57;11.47;;;2.60;;
51957;SDS011;41120;51.820;20.804;2023-05-18T00:27:25;7.13;;;2.20;;
51957;SDS011;41120;51.820;20.804;2023-05-18T00:29:54;9.03;;;2.27;;
51957;SDS011;41120;51.820;20.804;2023-05-18T00:37:21;9.70;;;2.00;;
51957;SDS011;41120;51.820;20.804;2023-05-18T00:39:50;12.27;;;2.20;;
51957;SDS011;41120;51.820;20.804;2023-05-18T00:42:16;5.83;;;2.10;;
51957;SDS011;41120;51.820;20.804;2023-05-18T00:44:42;11.13;;;2.00;;
51957;SDS011;41120;51.820;20.804;2023-05-18T00:49:46;9.77;;;2.20;;
51957;SDS011;41120;51.820;20.804;2023-05-18T00:54:46;8.83;;;2.70;;
51957;SDS011;41120;51.820;20.804;2023-05-18T00:57:13;9.40;;;2.13;;
51957;SDS011;41120;51.820;20.804;2023-05-18T01:02:23;13.68;;;2.17;;
51957;SDS011;41120;51.820;20.804;2023-05-18T01:04:49;7.87;;;2.70;;
51957;SDS011;41120;51.820;20.804;2023-05-18T01:12:59;10.37;;;1.93;;
51957;SDS011;41120;51.820;20.804;2023-05-18T01:18:33;9.03;;;1.80;;
51957;SDS011;41120;51.820;20.804;2023-05-18T01:27:34;9.80;;;1.90;;
51957;SDS011;41120;51.820;20.804;2023-05-18T01:30:08;7.13;;;1.40;;
51957;SDS011;41120;51.820;20.804;2023-05-18T01:32:40;6.53;;;1.80;;
51957;SDS011;41120;51.820;20.804;2023-05-18T01:35:08;9.00;;;2.20;;
51957;SDS011;41120;51.820;20.804;2023-05-18T01:37:52;6.23;;;2.20;;
51957;SDS011;41120;51.820;20.804;2023-05-18T01:49:55;8.63;;;1.80;;
51957;SDS011;41120;51.820;20.804;2023-05-18T01:57:45;8.27;;;2.00;;
51957;SDS011;41120;51.820;20.804;2023-05-18T02:00:12;7.43;;;1.60;;
51957;SDS011;41120;51.820;20.804;2023-05-18T02:07:52;8.40;;;2.63;;
51957;SDS011;41120;51.820;20.804;2023-05-18T02:10:26;12.73;;;2.10;;
51957;SDS011;41120;51.820;20.804;2023-05-18T02:13:08;7.43;;;1.70;;
51957;SDS011;41120;51.820;20.804;2023-05-18T02:15:35;7.43;;;1.67;;
51957;SDS011;41120;51.820;20.804;2023-05-18T02:18:06;7.00;;;1.73;;
51957;SDS011;41120;51.820;20.804;2023-05-18T02:20:35;8.80;;;1.80;;
51957;SDS011;41120;51.820;20.804;2023-05-18T02:23:04;10.37;;;1.90;;
51957;SDS011;41120;51.820;20.804;2023-05-18T02:25:38;6.37;;;1.93;;
51957;SDS011;41120;51.820;20.804;2023-05-18T02:28:13;8.27;;;2.00;;
51957;SDS011;41120;51.820;20.804;2023-05-18T02:30:51;8.50;;;1.95;;
51957;SDS011;41120;51.820;20.804;2023-05-18T02:33:21;7.65;;;2.00;;
51957;SDS011;41120;51.820;20.804;2023-05-18T02:40:57;6.20;;;1.75;;
51957;SDS011;41120;51.820;20.804;2023-05-18T02:46:22;12.73;;;2.50;;
51957;SDS011;41120;51.820;20.804;2023-05-18T02:48:54;7.50;;;1.90;;
51957;SDS011;41120;51.820;20.804;2023-05-18T02:54:01;9.30;;;2.00;;
51957;SDS011;41120;51.820;20.804;2023-05-18T02:56:31;10.02;;;2.25;;
51957;SDS011;41120;51.820;20.804;2023-05-18T03:01:59;10.77;;;2.37;;
51957;SDS011;41120;51.820;20.804;2023-05-18T03:04:33;9.23;;;2.10;;
51957;SDS011;41120;51.820;20.804;2023-05-18T03:07:08;8.13;;;2.10;;
51957;SDS011;41120;51.820;20.804;2023-05-18T03:09:36;11.45;;;1.88;;
51957;SDS011;41120;51.820;20.804;2023-05-18T03:12:05;9.40;;;1.70;;
51957;SDS011;41120;51.820;20.804;2023-05-18T03:14:41;5.97;;;2.07;;
51957;SDS011;41120;51.820;20.804;2023-05-18T03:20:24;16.15;;;2.65;;
51957;SDS011;41120;51.820;20.804;2023-05-18T03:23:05;6.60;;;1.50;;
51957;SDS011;41120;51.820;20.804;2023-05-18T03:28:33;7.88;;;2.20;;
51957;SDS011;41120;51.820;20.804;2023-05-18T03:31:01;11.95;;;2.08;;
51957;SDS011;41120;51.820;20.804;2023-05-18T03:36:05;7.10;;;1.85;;
51957;SDS011;41120;51.820;20.804;2023-05-18T03:38:32;7.72;;;1.98;;
51957;SDS011;41120;51.820;20.804;2023-05-18T03:41:18;13.75;;;2.40;;
51957;SDS011;41120;51.820;20.804;2023-05-18T03:44:07;8.70;;;2.10;;
51957;SDS011;41120;51.820;20.804;2023-05-18T03:46:34;7.10;;;1.95;;
51957;SDS011;41120;51.820;20.804;2023-05-18T03:49:18;7.73;;;2.30;;
51957;SDS011;41120;51.820;20.804;2023-05-18T03:57:54;7.43;;;1.83;;
51957;SDS011;41120;51.820;20.804;2023-05-18T04:00:24;8.03;;;1.77;;
51957;SDS011;41120;51.820;20.804;2023-05-18T04:02:50;10.07;;;2.20;;
51957;SDS011;41120;51.820;20.804;2023-05-18T04:05:19;8.17;;;3.23;;
51957;SDS011;41120;51.820;20.804;2023-05-18T04:07:58;11.77;;;2.17;;
51957;SDS011;41120;51.820;20.804;2023-05-18T04:10:27;7.40;;;1.98;;
51957;SDS011;41120;51.820;20.804;2023-05-18T04:23:44;10.70;;;3.17;;
51957;SDS011;41120;51.820;20.804;2023-05-18T04:26:24;10.07;;;2.60;;
51957;SDS011;41120;51.820;20.804;2023-05-18T04:28:53;8.57;;;2.40;;
51957;SDS011;41120;51.820;20.804;2023-05-18T04:34:19;11.23;;;1.90;;
51957;SDS011;41120;51.820;20.804;2023-05-18T04:41:50;9.67;;;2.10;;
51957;SDS011;41120;51.820;20.804;2023-05-18T04:44:26;8.00;;;1.90;;
51957;SDS011;41120;51.820;20.804;2023-05-18T04:50:25;7.70;;;2.10;;
51957;SDS011;41120;51.820;20.804;2023-05-18T04:52:55;5.53;;;1.73;;
51957;SDS011;41120;51.820;20.804;2023-05-18T04:55:25;9.63;;;2.00;;
51957;SDS011;41120;51.820;20.804;2023-05-18T04:57:52;5.67;;;1.83;;
51957;SDS011;41120;51.820;20.804;2023-05-18T05:00:23;9.13;;;3.27;;
51957;SDS011;41120;51.820;20.804;2023-05-18T05:05:23;6.57;;;1.40;;
51957;SDS011;41120;51.820;20.804;2023-05-18T05:07:57;5.97;;;2.13;;
51957;SDS011;41120;51.820;20.804;2023-05-18T05:10:25;6.97;;;1.73;;
51957;SDS011;41120;51.820;20.804;2023-05-18T05:12:53;8.13;;;1.87;;
51957;SDS011;41120;51.820;20.804;2023-05-18T05:15:20;6.67;;;1.70;;
51957;SDS011;41120;51.820;20.804;2023-05-18T05:17:52;8.07;;;1.87;;
51957;SDS011;41120;51.820;20.804;2023-05-18T05:20:18;5.90;;;2.40;;
51957;SDS011;41120;51.820;20.804;2023-05-18T05:22:45;8.60;;;1.77;;
51957;SDS011;41120;51.820;20.804;2023-05-18T05:27:55;8.93;;;1.80;;
51957;SDS011;41120;51.820;20.804;2023-05-18T05:30:23;6.73;;;1.83;;
51957;SDS011;41120;51.820;20.804;2023-05-18T05:32:49;8.93;;;1.80;;
51957;SDS011;41120;51.820;20.804;2023-05-18T05:37:45;10.80;;;2.30;;
51957;SDS011;41120;51.820;20.804;2023-05-18T05:40:11;7.63;;;2.17;;
51957;SDS011;41120;51.820;20.804;2023-05-18T05:42:37;11.00;;;2.13;;
51957;SDS011;41120;51.820;20.804;2023-05-18T05:53:18;7.27;;;1.73;;
51957;SDS011;41120;51.820;20.804;2023-05-18T05:55:46;7.53;;;2.17;;
51957;SDS011;41120;51.820;20.804;2023-05-18T05:58:14;8.47;;;2.13;;
51957;SDS011;41120;51.820;20.804;2023-05-18T06:00:45;11.67;;;2.20;;
51957;SDS011;41120;51.820;20.804;2023-05-18T06:03:23;9.77;;;1.90;;
51957;SDS011;41120;51.820;20.804;2023-05-18T06:08:23;12.90;;;2.30;;
51957;SDS011;41120;51.820;20.804;2023-05-18T06:10:55;6.47;;;1.50;;
51957;SDS011;41120;51.820;20.804;2023-05-18T06:15:49;5.43;;;1.97;;
51957;SDS011;41120;51.820;20.804;2023-05-18T06:18:19;7.27;;;2.07;;
51957;SDS011;41120;51.820;20.804;2023-05-18T06:23:19;5.53;;;1.77;;
51957;SDS011;41120;51.820;20.804;2023-05-18T06:25:57;5.80;;;1.87;;
51957;SDS011;41120;51.820;20.804;2023-05-18T06:28:24;4.33;;;1.30;;
51957;SDS011;41120;51.820;20.804;2023-05-18T06:31:07;8.27;;;1.77;;
51957;SDS011;41120;51.820;20.804;2023-05-18T06:33:41;7.50;;;1.70;;
51957;SDS011;41120;51.820;20.804;2023-05-18T06:36:07;7.20;;;1.97;;
51957;SDS011;41120;51.820;20.804;2023-05-18T06:41:29;8.83;;;1.87;;
51957;SDS011;41120;51.820;20.804;2023-05-18T06:43:57;6.73;;;1.80;;
51957;SDS011;41120;51.820;20.804;2023-05-18T06:46:25;5.87;;;1.97;;
51957;SDS011;41120;51.820;20.804;2023-05-18T06:48:56;3.87;;;1.80;;
51957;SDS011;41120;51.820;20.804;2023-05-18T06:51:33;8.37;;;2.30;;
51957;SDS011;41120;51.820;20.804;2023-05-18T06:54:01;7.87;;;2.10;;
51957;SDS011;41120;51.820;20.804;2023-05-18T06:56:28;5.60;;;1.80;;
51957;SDS011;41120;51.820;20.804;2023-05-18T06:58:56;5.23;;;1.50;;
51957;SDS011;41120;51.820;20.804;2023-05-18T07:01:24;5.53;;;2.00;;
51957;SDS011;41120;51.820;20.804;2023-05-18T07:04:08;7.10;;;2.03;;
51957;SDS011;41120;51.820;20.804;2023-05-18T07:06:41;7.30;;;1.60;;
51957;SDS011;41120;51.820;20.804;2023-05-18T07:09:19;5.93;;;1.90;;
51957;SDS011;41120;51.820;20.804;2023-05-18T07:12:01;5.03;;;1.67;;
51957;SDS011;41120;51.820;20.804;2023-05-18T07:14:39;4.60;;;1.63;;
51957;SDS011;41120;51.820;20.804;2023-05-18T07:17:20;8.23;;;1.67;;
51957;SDS011;41120;51.820;20.804;2023-05-18T07:19:58;7.40;;;1.87;;
51957;SDS011;41120;51.820;20.804;2023-05-18T07:22:40;6.60;;;1.70;;
51957;SDS011;41120;51.820;20.804;2023-05-18T07:25:13;5.30;;;2.13;;
51957;SDS011;41120;51.820;20.804;2023-05-18T07:30:14;6.57;;;1.83;;
51957;SDS011;41120;51.820;20.804;2023-05-18T07:35:31;6.33;;;1.73;;
51957;SDS011;41120;51.820;20.804;2023-05-18T07:46:19;4.40;;;1.50;;
51957;SDS011;41120;51.820;20.804;2023-05-18T07:51:16;4.10;;;1.10;;
51957;SDS011;41120;51.820;20.804;2023-05-18T07:53:59;3.30;;;1.20;;
51957;SDS011;41120;51.820;20.804;2023-05-18T07:59:19;2.90;;;1.20;;
51957;SDS011;41120;51.820;20.804;2023-05-18T08:05:06;4.40;;;1.30;;
51957;SDS011;41120;51.820;20.804;2023-05-18T08:07:49;4.00;;;1.00;;
51957;SDS011;41120;51.820;20.804;2023-05-18T08:21:49;3.23;;;1.07;;
51957;SDS011;41120;51.820;20.804;2023-05-18T08:26:59;2.60;;;0.70;;
51957;SDS011;41120;51.820;20.804;2023-05-18T08:34:58;3.53;;;1.10;;
51957;SDS011;41120;51.820;20.804;2023-05-18T08:37:30;3.90;;;1.13;;
51957;SDS011;41120;51.820;20.804;2023-05-18T08:45:31;2.50;;;0.90;;
51957;SDS011;41120;51.820;20.804;2023-05-18T08:48:06;2.43;;;0.90;;
51957;SDS011;41120;51.820;20.804;2023-05-18T08:50:43;3.33;;;1.20;;
51957;SDS011;41120;51.820;20.804;2023-05-18T08:53:30;2.90;;;1.20;;
51957;SDS011;41120;51.820;20.804;2023-05-18T09:02:30;3.23;;;1.00;;
51957;SDS011;41120;51.820;20.804;2023-05-18T09:08:04;2.63;;;1.00;;
51957;SDS011;41120;51.820;20.804;2023-05-18T09:10:49;4.03;;;1.30;;
51957;SDS011;41120;51.820;20.804;2023-05-18T09:13:31;3.50;;;1.40;;
51957;SDS011;41120;51.820;20.804;2023-05-18T09:22:02;4.83;;;1.90;;
51957;SDS011;41120;51.820;20.804;2023-05-18T09:24:30;2.33;;;1.13;;
51957;SDS011;41120;51.820;20.804;2023-05-18T09:27:07;2.00;;;1.10;;
51957;SDS011;41120;51.820;20.804;2023-05-18T09:32:22;3.60;;;0.83;;
51957;SDS011;41120;51.820;20.804;2023-05-18T09:38:08;3.57;;;0.90;;
51957;SDS011;41120;51.820;20.804;2023-05-18T09:40:35;2.97;;;0.97;;
51957;SDS011;41120;51.820;20.804;2023-05-18T09:43:06;3.07;;;0.90;;
51957;SDS011;41120;51.820;20.804;2023-05-18T09:45:34;3.75;;;1.15;;
51957;SDS011;41120;51.820;20.804;2023-05-18T09:51:05;2.90;;;1.10;;
51957;SDS011;41120;51.820;20.804;2023-05-18T09:56:30;3.60;;;1.17;;
51957;SDS011;41120;51.820;20.804;2023-05-18T10:04:43;4.00;;;1.10;;
51957;SDS011;41120;51.820;20.804;2023-05-18T10:07:10;2.37;;;1.13;;
51957;SDS011;41120;51.820;20.804;2023-05-18T10:09:59;4.07;;;1.30;;
51957;SDS011;41120;51.820;20.804;2023-05-18T10:12:29;2.80;;;1.00;;
51957;SDS011;41120;51.820;20.804;2023-05-18T10:15:01;2.63;;;1.00;;
51957;SDS011;41120;51.820;20.804;2023-05-18T10:20:02;4.37;;;1.13;;
51957;SDS011;41120;51.820;20.804;2023-05-18T10:22:30;3.55;;;1.20;;
51957;SDS011;41120;51.820;20.804;2023-05-18T10:25:18;5.40;;;1.00;;
51957;SDS011;41120;51.820;20.804;2023-05-18T10:27:49;3.30;;;1.13;;
51957;SDS011;41120;51.820;20.804;2023-05-18T10:30:39;3.53;;;1.17;;
51957;SDS011;41120;51.820;20.804;2023-05-18T10:33:23;2.37;;;1.03;;
51957;SDS011;41120;51.820;20.804;2023-05-18T10:41:54;3.80;;;1.20;;
51957;SDS011;41120;51.820;20.804;2023-05-18T11:04:26;3.00;;;1.00;;
51957;SDS011;41120;51.820;20.804;2023-05-18T11:09:32;2.20;;;1.10;;
51957;SDS011;41120;51.820;20.804;2023-05-18T11:25:43;2.35;;;1.00;;
51957;SDS011;41120;51.820;20.804;2023-05-18T11:28:10;2.33;;;0.87;;
51957;SDS011;41120;51.820;20.804;2023-05-18T11:36:14;7.10;;;1.83;;
51957;SDS011;41120;51.820;20.804;2023-05-18T11:42:01;2.43;;;1.30;;
51957;SDS011;41120;51.820;20.804;2023-05-18T11:44:30;2.13;;;1.17;;
51957;SDS011;41120;51.820;20.804;2023-05-18T11:47:00;4.57;;;1.20;;
51957;SDS011;41120;51.820;20.804;2023-05-18T11:49:46;3.53;;;1.17;;
51957;SDS011;41120;51.820;20.804;2023-05-18T11:55:03;3.17;;;1.10;;
51957;SDS011;41120;51.820;20.804;2023-05-18T11:57:42;3.97;;;1.10;;
51957;SDS011;41120;51.820;20.804;2023-05-18T12:03:10;2.60;;;1.37;;
51957;SDS011;41120;51.820;20.804;2023-05-18T12:08:38;4.10;;;1.35;;
51957;SDS011;41120;51.820;20.804;2023-05-18T12:11:08;3.07;;;1.37;;
51957;SDS011;41120;51.820;20.804;2023-05-18T12:13:35;3.13;;;1.30;;
51957;SDS011;41120;51.820;20.804;2023-05-18T12:16:07;4.27;;;1.30;;
51957;SDS011;41120;51.820;20.804;2023-05-18T12:18:47;3.47;;;1.40;;
51957;SDS011;41120;51.820;20.804;2023-05-18T12:21:19;3.50;;;1.20;;
51957;SDS011;41120;51.820;20.804;2023-05-18T12:23:59;2.60;;;1.00;;
51957;SDS011;41120;51.820;20.804;2023-05-18T12:26:35;3.70;;;1.10;;
51957;SDS011;41120;51.820;20.804;2023-05-18T12:29:17;3.13;;;1.30;;
51957;SDS011;41120;51.820;20.804;2023-05-18T12:34:31;4.67;;;1.60;;
51957;SDS011;41120;51.820;20.804;2023-05-18T12:40:09;3.20;;;1.23;;
51957;SDS011;41120;51.820;20.804;2023-05-18T12:42:51;4.63;;;1.50;;
51957;SDS011;41120;51.820;20.804;2023-05-18T12:45:23;2.92;;;1.10;;
51957;SDS011;41120;51.820;20.804;2023-05-18T12:50:48;5.17;;;1.33;;
51957;SDS011;41120;51.820;20.804;2023-05-18T12:59:09;11.73;;;2.40;;
51957;SDS011;41120;51.820;20.804;2023-05-18T13:01:40;4.33;;;1.57;;
51957;SDS011;41120;51.820;20.804;2023-05-18T13:04:18;5.22;;;1.25;;
51957;SDS011;41120;51.820;20.804;2023-05-18T13:07:00;3.00;;;1.30;;
51957;SDS011;41120;51.820;20.804;2023-05-18T13:14:51;3.70;;;1.10;;
51957;SDS011;41120;51.820;20.804;2023-05-18T13:17:26;3.67;;;1.30;;
51957;SDS011;41120;51.820;20.804;2023-05-18T13:19:55;3.53;;;1.20;;
51957;SDS011;41120;51.820;20.804;2023-05-18T13:22:28;5.80;;;1.57;;
51957;SDS011;41120;51.820;20.804;2023-05-18T13:27:52;2.87;;;1.43;;
51957;SDS011;41120;51.820;20.804;2023-05-18T13:30:20;2.60;;;1.47;;
51957;SDS011;41120;51.820;20.804;2023-05-18T13:32:47;4.87;;;1.47;;
51957;SDS011;41120;51.820;20.804;2023-05-18T13:35:13;1.87;;;1.20;;
51957;SDS011;41120;51.820;20.804;2023-05-18T13:40:11;1.60;;;0.97;;
51957;SDS011;41120;51.820;20.804;2023-05-18T13:42:39;3.43;;;1.30;;
51957;SDS011;41120;51.820;20.804;2023-05-18T13:45:05;1.97;;;1.33;;
51957;SDS011;41120;51.820;20.804;2023-05-18T13:47:33;2.90;;;1.23;;
51957;SDS011;41120;51.820;20.804;2023-05-18T13:49:58;2.27;;;1.20;;
51957;SDS011;41120;51.820;20.804;2023-05-18T13:52:29;3.87;;;1.30;;
51957;SDS011;41120;51.820;20.804;2023-05-18T13:57:25;5.50;;;1.50;;
51957;SDS011;41120;51.820;20.804;2023-05-18T14:02:25;1.65;;;0.98;;
51957;SDS011;41120;51.820;20.804;2023-05-18T14:04:51;1.53;;;1.10;;
51957;SDS011;41120;51.820;20.804;2023-05-18T14:07:23;4.40;;;1.10;;
51957;SDS011;41120;51.820;20.804;2023-05-18T14:09:57;1.43;;;1.07;;
51957;SDS011;41120;51.820;20.804;2023-05-18T14:12:36;3.33;;;1.33;;
51957;SDS011;41120;51.820;20.804;2023-05-18T14:17:57;3.17;;;1.07;;
51957;SDS011;41120;51.820;20.804;2023-05-18T14:20:36;3.20;;;1.20;;
51957;SDS011;41120;51.820;20.804;2023-05-18T14:23:09;5.77;;;1.50;;
51957;SDS011;41120;51.820;20.804;2023-05-18T14:25:36;6.17;;;1.00;;
51957;SDS011;41120;51.820;20.804;2023-05-18T14:28:10;1.30;;;1.07;;
51957;SDS011;41120;51.820;20.804;2023-05-18T14:30:37;1.53;;;0.90;;
51957;SDS011;41120;51.820;20.804;2023-05-18T14:38:47;4.30;;;1.47;;
51957;SDS011;41120;51.820;20.804;2023-05-18T14:43:45;3.07;;;1.30;;
51957;SDS011;41120;51.820;20.804;2023-05-18T14:46:19;3.10;;;1.07;;
51957;SDS011;41120;51.820;20.804;2023-05-18T14:48:46;3.63;;;1.20;;
51957;SDS011;41120;51.820;20.804;2023-05-18T14:51:21;2.77;;;1.10;;
51957;SDS011;41120;51.820;20.804;2023-05-18T14:59:32;1.77;;;1.10;;
51957;SDS011;41120;51.820;20.804;2023-05-18T15:07:32;1.90;;;1.17;;
51957;SDS011;41120;51.820;20.804;2023-05-18T15:10:01;2.73;;;1.03;;
51957;SDS011;41120;51.820;20.804;2023-05-18T15:12:29;1.53;;;1.00;;
51957;SDS011;41120;51.820;20.804;2023-05-18T15:15:07;1.33;;;0.87;;
51957;SDS011;41120;51.820;20.804;2023-05-18T15:17:41;3.53;;;1.10;;
51957;SDS011;41120;51.820;20.804;2023-05-18T15:26:30;3.17;;;1.47;;
51957;SDS011;41120;51.820;20.804;2023-05-18T15:28:57;4.13;;;2.07;;
51957;SDS011;41120;51.820;20.804;2023-05-18T15:31:24;3.60;;;1.20;;
51957;SDS011;41120;51.820;20.804;2023-05-18T15:33:55;4.37;;;1.10;;
51957;SDS011;41120;51.820;20.804;2023-05-18T15:36:40;2.77;;;1.00;;
51957;SDS011;41120;51.820;20.804;2023-05-18T15:39:06;2.37;;;1.30;;
51957;SDS011;41120;51.820;20.804;2023-05-18T15:41:40;1.83;;;0.90;;
51957;SDS011;41120;51.820;20.804;2023-05-18T15:44:14;3.10;;;1.20;;
51957;SDS011;41120;51.820;20.804;2023-05-18T15:46:40;3.67;;;1.50;;
51957;SDS011;41120;51.820;20.804;2023-05-18T15:49:06;3.53;;;1.40;;
51957;SDS011;41120;51.820;20.804;2023-05-18T15:51:41;2.70;;;1.40;;
51957;SDS011;41120;51.820;20.804;2023-05-18T15:59:54;5.82;;;2.88;;
51957;SDS011;41120;51.820;20.804;2023-05-18T16:02:22;5.07;;;4.33;;
51957;SDS011;41120;51.820;20.804;2023-05-18T16:04:49;14.20;;;9.90;;
51957;SDS011;41120;51.820;20.804;2023-05-18T16:07:20;9.27;;;6.57;;
51957;SDS011;41120;51.820;20.804;2023-05-18T16:09:46;6.07;;;4.63;;
51957;SDS011;41120;51.820;20.804;2023-05-18T16:14:44;32.20;;;22.83;;
51957;SDS011;41120;51.820;20.804;2023-05-18T16:17:25;20.10;;;14.37;;
51957;SDS011;41120;51.820;20.804;2023-05-18T16:20:03;13.70;;;8.37;;
51957;SDS011;41120;51.820;20.804;2023-05-18T16:25:02;14.27;;;6.23;;
51957;SDS011;41120;51.820;20.804;2023-05-18T16:30:49;8.60;;;5.33;;
51957;SDS011;41120;51.820;20.804;2023-05-18T16:36:39;7.37;;;3.00;;
51957;SDS011;41120;51.820;20.804;2023-05-18T16:42:08;5.00;;;2.30;;
51957;SDS011;41120;51.820;20.804;2023-05-18T16:44:35;3.73;;;2.20;;
51957;SDS011;41120;51.820;20.804;2023-05-18T16:47:10;9.67;;;7.83;;
51957;SDS011;41120;51.820;20.804;2023-05-18T16:57:50;17.03;;;11.60;;
51957;SDS011;41120;51.820;20.804;2023-05-18T17:03:08;14.63;;;12.87;;
51957;SDS011;41120;51.820;20.804;2023-05-18T17:05:35;16.93;;;11.70;;
51957;SDS011;41120;51.820;20.804;2023-05-18T17:08:03;13.47;;;11.83;;
51957;SDS011;41120;51.820;20.804;2023-05-18T17:10:31;14.53;;;11.07;;
51957;SDS011;41120;51.820;20.804;2023-05-18T17:13:00;9.20;;;7.33;;
51957;SDS011;41120;51.820;20.804;2023-05-18T17:20:57;12.83;;;8.03;;
51957;SDS011;41120;51.820;20.804;2023-05-18T17:23:26;11.77;;;9.88;;
51957;SDS011;41120;51.820;20.804;2023-05-18T17:26:00;17.80;;;13.60;;
51957;SDS011;41120;51.820;20.804;2023-05-18T17:28:27;18.73;;;16.73;;
51957;SDS011;41120;51.820;20.804;2023-05-18T17:30:53;20.03;;;15.97;;
51957;SDS011;41120;51.820;20.804;2023-05-18T17:33:19;12.33;;;6.63;;
51957;SDS011;41120;51.820;20.804;2023-05-18T17:35:46;9.73;;;8.57;;
51957;SDS011;41120;51.820;20.804;2023-05-18T17:38:12;16.27;;;12.67;;
51957;SDS011;41120;51.820;20.804;2023-05-18T17:40:43;18.47;;;14.30;;
51957;SDS011;41120;51.820;20.804;2023-05-18T17:43:10;16.20;;;12.13;;
51957;SDS011;41120;51.820;20.804;2023-05-18T17:45:37;18.13;;;13.50;;
51957;SDS011;41120;51.820;20.804;2023-05-18T17:53:08;14.27;;;9.70;;
51957;SDS011;41120;51.820;20.804;2023-05-18T17:55:37;16.87;;;11.40;;
51957;SDS011;41120;51.820;20.804;2023-05-18T18:00:55;16.90;;;13.80;;
51957;SDS011;41120;51.820;20.804;2023-05-18T18:06:06;19.43;;;14.67;;
51957;SDS011;41120;51.820;20.804;2023-05-18T18:08:34;22.87;;;16.03;;
51957;SDS011;41120;51.820;20.804;2023-05-18T18:11:13;21.83;;;16.43;;
51957;SDS011;41120;51.820;20.804;2023-05-18T18:13:44;20.60;;;16.80;;
51957;SDS011;41120;51.820;20.804;2023-05-18T18:27:02;18.17;;;13.37;;
51957;SDS011;41120;51.820;20.804;2023-05-18T18:29:28;17.43;;;12.10;;
51957;SDS011;41120;51.820;20.804;2023-05-18T18:31:57;19.30;;;12.67;;
51957;SDS011;41120;51.820;20.804;2023-05-18T18:34:24;15.03;;;9.47;;
51957;SDS011;41120;51.820;20.804;2023-05-18T18:36:50;10.97;;;6.47;;
51957;SDS011;41120;51.820;20.804;2023-05-18T18:39:16;12.67;;;7.03;;
51957;SDS011;41120;51.820;20.804;2023-05-18T18:41:44;8.83;;;5.70;;
51957;SDS011;41120;51.820;20.804;2023-05-18T18:44:11;21.33;;;13.70;;
51957;SDS011;41120;51.820;20.804;2023-05-18T18:46:38;20.30;;;12.10;;
51957;SDS011;41120;51.820;20.804;2023-05-18T18:49:04;9.80;;;4.83;;
51957;SDS011;41120;51.820;20.804;2023-05-18T18:51:30;9.83;;;3.93;;
51957;SDS011;41120;51.820;20.804;2023-05-18T18:53:59;10.07;;;6.63;;
51957;SDS011;41120;51.820;20.804;2023-05-18T18:56:26;4.33;;;2.93;;
51957;SDS011;41120;51.820;20.804;2023-05-18T18:58:52;5.00;;;2.60;;
51957;SDS011;41120;51.820;20.804;2023-05-18T19:01:19;5.00;;;3.67;;
51957;SDS011;41120;51.820;20.804;2023-05-18T19:03:45;8.97;;;3.97;;
51957;SDS011;41120;51.820;20.804;2023-05-18T19:06:11;7.07;;;4.27;;
51957;SDS011;41120;51.820;20.804;2023-05-18T19:08:39;7.23;;;5.63;;
51957;SDS011;41120;51.820;20.804;2023-05-18T19:11:06;10.30;;;6.60;;
51957;SDS011;41120;51.820;20.804;2023-05-18T19:13:32;9.40;;;6.90;;
51957;SDS011;41120;51.820;20.804;2023-05-18T19:15:58;11.47;;;7.73;;
51957;SDS011;41120;51.820;20.804;2023-05-18T19:18:24;15.80;;;9.13;;
51957;SDS011;41120;51.820;20.804;2023-05-18T19:20:50;13.37;;;9.20;;
51957;SDS011;41120;51.820;20.804;2023-05-18T19:23:16;15.77;;;8.97;;
51957;SDS011;41120;51.820;20.804;2023-05-18T19:25:42;17.37;;;9.87;;
51957;SDS011;41120;51.820;20.804;2023-05-18T19:28:08;16.33;;;10.07;;
51957;SDS011;41120;51.820;20.804;2023-05-18T19:30:37;16.33;;;10.23;;
51957;SDS011;41120;51.820;20.804;2023-05-18T19:39:05;5.40;;;3.37;;
51957;SDS011;41120;51.820;20.804;2023-05-18T19:41:49;6.47;;;4.60;;
51957;SDS011;41120;51.820;20.804;2023-05-18T19:44:15;11.30;;;6.20;;
51957;SDS011;41120;51.820;20.804;2023-05-18T19:46:51;9.37;;;5.37;;
51957;SDS011;41120;51.820;20.804;2023-05-18T19:49:32;6.70;;;3.90;;
51957;SDS011;41120;51.820;20.804;2023-05-18T19:52:01;6.60;;;2.87;;
51957;SDS011;41120;51.820;20.804;2023-05-18T19:54:45;4.55;;;2.60;;
51957;SDS011;41120;51.820;20.804;2023-05-18T19:57:11;4.23;;;2.47;;
51957;SDS011;41120;51.820;20.804;2023-05-18T19:59:37;4.00;;;2.47;;
51957;SDS011;41120;51.820;20.804;2023-05-18T20:02:04;7.10;;;3.03;;
51957;SDS011;41120;51.820;20.804;2023-05-18T20:04:30;5.63;;;2.60;;
51957;SDS011;41120;51.820;20.804;2023-05-18T20:06:59;8.30;;;2.60;;
51957;SDS011;41120;51.820;20.804;2023-05-18T20:09:26;9.87;;;4.37;;
51957;SDS011;41120;51.820;20.804;2023-05-18T20:11:53;11.00;;;4.70;;
51957;SDS011;41120;51.820;20.804;2023-05-18T20:14:21;8.70;;;4.30;;
51957;SDS011;41120;51.820;20.804;2023-05-18T20:16:47;7.00;;;4.43;;
51957;SDS011;41120;51.820;20.804;2023-05-18T20:21:53;8.30;;;4.57;;
51957;SDS011;41120;51.820;20.804;2023-05-18T20:24:19;9.70;;;6.10;;
51957;SDS011;41120;51.820;20.804;2023-05-18T20:26:45;9.73;;;6.47;;
51957;SDS011;41120;51.820;20.804;2023-05-18T20:29:11;13.10;;;6.70;;
51957;SDS011;41120;51.820;20.804;2023-05-18T20:31:41;9.03;;;6.37;;
51957;SDS011;41120;51.820;20.804;2023-05-18T20:36:47;13.83;;;7.70;;
51957;SDS011;41120;51.820;20.804;2023-05-18T20:39:19;11.07;;;8.00;;
51957;SDS011;41120;51.820;20.804;2023-05-18T20:41:49;11.45;;;7.70;;
51957;SDS011;41120;51.820;20.804;2023-05-18T20:44:29;11.53;;;8.00;;
51957;SDS011;41120;51.820;20.804;2023-05-18T20:46:56;11.53;;;8.23;;
51957;SDS011;41120;51.820;20.804;2023-05-18T20:49:23;13.97;;;8.60;;
51957;SDS011;41120;51.820;20.804;2023-05-18T20:51:50;14.80;;;9.43;;
51957;SDS011;41120;51.820;20.804;2023-05-18T20:54:16;13.47;;;9.20;;
51957;SDS011;41120;51.820;20.804;2023-05-18T20:56:46;11.77;;;9.50;;
51957;SDS011;41120;51.820;20.804;2023-05-18T20:59:13;15.50;;;10.03;;
51957;SDS011;41120;51.820;20.804;2023-05-18T21:01:41;16.23;;;9.53;;
51957;SDS011;41120;51.820;20.804;2023-05-18T21:04:07;15.90;;;10.03;;
51957;SDS011;41120;51.820;20.804;2023-05-18T21:06:34;13.23;;;10.27;;
51957;SDS011;41120;51.820;20.804;2023-05-18T21:09:05;19.47;;;11.30;;
51957;SDS011;41120;51.820;20.804;2023-05-18T21:11:32;29.37;;;15.53;;
51957;SDS011;41120;51.820;20.804;2023-05-18T21:13:59;29.13;;;14.00;;
51957;SDS011;41120;51.820;20.804;2023-05-18T21:16:25;24.67;;;12.13;;
51957;SDS011;41120;51.820;20.804;2023-05-18T21:18:51;19.10;;;11.43;;
51957;SDS011;41120;51.820;20.804;2023-05-18T21:21:17;20.50;;;12.80;;
51957;SDS011;41120;51.820;20.804;2023-05-18T21:23:43;18.87;;;9.13;;
51957;SDS011;41120;51.820;20.804;2023-05-18T21:26:10;17.63;;;9.30;;
51957;SDS011;41120;51.820;20.804;2023-05-18T21:28:36;20.23;;;11.40;;
51957;SDS011;41120;51.820;20.804;2023-05-18T21:31:02;27.37;;;13.50;;